Time;durP1;ratioP1;P1;durP2;ratioP2;P2;SDS_P1;SDS_P2;PMS_P1;PMS_P2;Temp;Humidity;BMP_temperature;BMP_pressure;BME280_temperature;BME280_humidity;BME280_pressure;Samples;Min_cycle;Max_cycle;Signal;HPM_P1;HPM_P2
2023/03/08 02:04:38;;;;;;;9.48;4.35;;;;;;;3.33;100.00;98740.38;5018688;28;20060;-54
2023/03/08 02:07:04;;;;;;;9.13;4.95;;;;;;;3.41;100.00;98741.09;5025005;28;20525;-54
2023/03/08 02:09:30;;;;;;;7.05;3.63;;;;;;;3.49;100.00;98740.16;5027940;28;20045;-51
2023/03/08 02:11:59;;;;;;;8.80;4.35;;;;;;;3.50;100.00;98739.13;5013744;28;20065;-51
2023/03/08 02:14:25;;;;;;;9.18;5.20;;;;;;;3.60;100.00;98737.00;5021232;28;20084;-50
2023/03/08 02:16:51;;;;;;;11.60;5.38;;;;;;;3.59;100.00;98724.91;5018709;28;20122;-53
2023/03/08 02:19:24;;;;;;;10.32;4.63;;;;;;;3.63;100.00;98722.72;5041053;28;20521;-55
2023/03/08 02:21:50;;;;;;;9.75;4.65;;;;;;;3.66;100.00;98715.28;5044060;28;20040;-53
2023/03/08 02:24:21;;;;;;;8.45;4.35;;;;;;;3.68;100.00;98713.28;5045784;28;20059;-49
2023/03/08 02:26:47;;;;;;;;;;;;;;;3.85;100.00;98708.59;5047471;28;20041;-52
2023/03/08 02:29:12;;;;;;;10.23;5.30;;;;;;;3.70;100.00;98707.84;5058081;28;19924;-51
2023/03/08 02:31:38;;;;;;;8.13;5.00;;;;;;;3.67;100.00;98695.13;5041161;28;20029;-52
2023/03/08 02:34:04;;;;;;;9.65;4.47;;;;;;;3.69;100.00;98699.19;5045098;28;20171;-49
2023/03/08 02:36:29;;;;;;;19.65;5.85;;;;;;;3.66;100.00;98690.88;5042959;28;20517;-50
2023/03/08 02:38:54;;;;;;;13.57;6.13;;;;;;;3.69;100.00;98680.84;5045084;28;20116;-49
2023/03/08 02:41:19;;;;;;;14.93;5.05;;;;;;;3.74;100.00;98674.19;5044967;28;20029;-51
2023/03/08 02:43:45;;;;;;;8.88;5.57;;;;;;;3.72;100.00;98667.34;5051944;28;20470;-50
2023/03/08 02:46:12;;;;;;;12.52;6.07;;;;;;;3.68;100.00;98671.34;5045893;28;20025;-52
2023/03/08 02:48:37;;;;;;;11.88;5.57;;;;;;;3.68;100.00;98667.91;5044213;28;20041;-52
2023/03/08 02:51:03;;;;;;;14.65;6.00;;;;;;;3.79;100.00;98662.13;5043565;28;20040;-50
2023/03/08 02:53:28;;;;;;;13.80;6.18;;;;;;;3.92;100.00;98658.78;5051575;28;20029;-52
2023/03/08 02:55:54;;;;;;;10.68;5.97;;;;;;;3.97;100.00;98648.53;5032357;28;20044;-50
2023/03/08 02:58:19;;;;;;;11.27;5.20;;;;;;;3.99;100.00;98640.50;5045576;28;20032;-51
2023/03/08 03:00:44;;;;;;;8.60;4.95;;;;;;;3.99;100.00;98636.03;5044106;28;20036;-52
2023/03/08 03:03:10;;;;;;;11.38;4.97;;;;;;;3.97;100.00;98632.00;5046831;28;20036;-50
2023/03/08 03:05:40;;;;;;;15.55;6.32;;;;;;;3.89;100.00;98630.34;5042186;28;20474;-54
2023/03/08 03:08:05;;;;;;;12.18;6.20;;;;;;;3.98;100.00;98628.38;5044239;28;20061;-52
2023/03/08 03:10:31;;;;;;;16.67;7.25;;;;;;;3.99;100.00;98622.94;5041917;28;20271;-54
2023/03/08 03:12:56;;;;;;;17.23;7.32;;;;;;;3.96;100.00;98614.66;5043592;28;20439;-49
2023/03/08 03:15:21;;;;;;;13.00;6.10;;;;;;;4.03;100.00;98611.06;5048744;28;20183;-51
2023/03/08 03:17:47;;;;;;;21.17;7.53;;;;;;;4.00;100.00;98603.59;5043963;28;20049;-49
2023/03/08 03:20:12;;;;;;;14.02;8.13;;;;;;;3.99;100.00;98599.34;5041504;28;20539;-51
2023/03/08 03:22:38;;;;;;;15.90;6.70;;;;;;;4.08;100.00;98595.56;5045304;28;20063;-49
2023/03/08 03:25:04;;;;;;;17.15;6.88;;;;;;;4.10;100.00;98590.09;5048792;28;20037;-55
2023/03/08 03:27:29;;;;;;;18.15;7.63;;;;;;;4.06;100.00;98583.63;5047257;28;20041;-51
2023/03/08 03:29:55;;;;;;;18.42;7.32;;;;;;;4.11;100.00;98576.00;5047015;28;20033;-48
2023/03/08 03:32:20;;;;;;;13.25;6.50;;;;;;;4.13;100.00;98571.34;5054896;28;20466;-49
2023/03/08 03:34:45;;;;;;;14.38;7.22;;;;;;;4.20;100.00;98568.75;5048388;28;20086;-52
2023/03/08 03:37:11;;;;;;;14.50;6.78;;;;;;;4.17;100.00;98556.03;5049401;28;20123;-50
2023/03/08 03:39:37;;;;;;;14.10;7.22;;;;;;;4.23;100.00;98547.38;5058662;28;20040;-50
2023/03/08 03:42:06;;;;;;;18.73;8.27;;;;;;;4.25;100.00;98555.84;5050264;28;20466;-49
2023/03/08 03:44:32;;;;;;;14.75;7.10;;;;;;;4.19;100.00;98552.22;5057697;28;20403;-52
2023/03/08 03:46:58;;;;;;;18.92;7.07;;;;;;;4.25;100.00;98545.38;5065168;28;20032;-50
2023/03/08 03:49:23;;;;;;;14.63;7.68;;;;;;;4.29;100.00;98541.34;5051308;28;20062;-52
2023/03/08 03:51:49;;;;;;;18.23;8.48;;;;;;;4.29;100.00;98536.09;5047524;28;20512;-49
2023/03/08 03:54:14;;;;;;;19.55;7.78;;;;;;;4.18;100.00;98534.03;5050487;28;20029;-53
2023/03/08 03:56:39;;;;;;;17.08;8.02;;;;;;;4.09;100.00;98528.97;5051971;28;20116;-48
2023/03/08 03:59:05;;;;;;;16.50;7.43;;;;;;;4.08;100.00;98529.97;5041451;28;20079;-48
2023/03/08 04:01:31;;;;;;;17.33;7.38;;;;;;;4.00;100.00;98526.72;5055764;28;20131;-51
2023/03/08 04:03:57;;;;;;;16.70;6.80;;;;;;;3.91;100.00;98536.56;5054471;28;20043;-53
2023/03/08 04:06:25;;;;;;;13.43;7.00;;;;;;;4.01;100.00;98542.25;5047088;28;20021;-48
2023/03/08 04:08:52;;;;;;;13.15;6.78;;;;;;;3.94;100.00;98533.56;5041287;28;20449;-48
2023/03/08 04:11:21;;;;;;;15.18;7.60;;;;;;;4.00;100.00;98527.53;5054720;28;20032;-47
2023/03/08 04:13:47;;;;;;;17.92;9.15;;;;;;;3.92;100.00;98525.06;5050584;28;20126;-50
2023/03/08 04:16:14;;;;;;;13.82;6.65;;;;;;;3.97;100.00;98533.16;5048128;28;20055;-48
2023/03/08 04:18:40;;;;;;;12.45;6.32;;;;;;;3.93;100.00;98530.13;5058325;28;20025;-50
2023/03/08 04:21:06;;;;;;;12.40;6.47;;;;;;;2.04;100.00;98529.06;5047741;28;20036;-48
2023/03/08 04:23:32;;;;;;;12.35;6.25;;;;;;;1.50;100.00;98529.41;5054822;28;20098;-48
2023/03/08 04:25:58;;;;;;;12.90;5.68;;;;;;;1.68;100.00;98527.22;5050053;28;20052;-48
2023/03/08 04:28:23;;;;;;;8.27;4.40;;;;;;;3.09;100.00;98518.97;5039061;28;20060;-49
2023/03/08 04:30:49;;;;;;;9.85;4.20;;;;;;;3.30;100.00;98505.81;5050622;28;20509;-50
2023/03/08 04:33:14;;;;;;;9.88;5.00;;;;;;;3.43;100.00;98503.28;5053085;28;20028;-49
2023/03/08 04:35:39;;;;;;;8.45;4.70;;;;;;;3.52;100.00;98503.94;5055888;28;20033;-52
2023/03/08 04:38:05;;;;;;;8.82;4.50;;;;;;;3.60;100.00;98506.38;5050768;28;20020;-49
2023/03/08 04:40:31;;;;;;;8.25;4.10;;;;;;;3.62;100.00;98496.53;5052985;28;20048;-49
2023/03/08 04:42:56;;;;;;;14.80;4.07;;;;;;;3.57;100.00;98496.28;5051673;28;20430;-48
2023/03/08 04:45:22;;;;;;;8.07;4.10;;;;;;;3.56;100.00;98488.59;5055682;28;20029;-50
2023/03/08 04:47:47;;;;;;;8.77;4.28;;;;;;;3.48;100.00;98479.94;5045138;28;20033;-51
2023/03/08 04:50:14;;;;;;;8.00;3.60;;;;;;;3.53;100.00;98475.91;5052631;28;20045;-49
2023/03/08 04:52:39;;;;;;;9.50;4.55;;;;;;;3.62;100.00;98461.66;5048653;28;20032;-52
2023/03/08 04:55:05;;;;;;;10.30;4.28;;;;;;;3.67;100.00;98454.81;5055371;28;20044;-48
2023/03/08 04:57:31;;;;;;;6.70;3.47;;;;;;;3.78;100.00;98457.88;5045668;28;20040;-53
2023/03/08 04:59:56;;;;;;;6.15;4.20;;;;;;;3.78;100.00;98452.63;5054078;28;20393;-49
2023/03/08 05:02:22;;;;;;;9.07;3.60;;;;;;;3.70;100.00;98458.84;5056451;28;20032;-49
2023/03/08 05:04:48;;;;;;;10.52;3.58;;;;;;;3.63;100.00;98461.44;5056224;28;20404;-48
2023/03/08 05:07:13;;;;;;;10.85;3.95;;;;;;;3.63;100.00;98458.81;5047325;28;20095;-48
2023/03/08 05:09:39;;;;;;;8.85;5.03;;;;;;;2.85;100.00;98442.47;5043348;28;20086;-48
2023/03/08 05:12:04;;;;;;;10.25;4.70;;;;;;;2.21;100.00;98442.56;5047434;28;20064;-51
2023/03/08 05:14:30;;;;;;;9.07;4.75;;;;;;;3.18;100.00;98441.88;5057316;28;20032;-51
2023/03/08 05:16:56;;;;;;;7.40;3.75;;;;;;;2.99;100.00;98438.13;5048986;28;20506;-49
2023/03/08 05:19:22;;;;;;;7.18;4.22;;;;;;;3.35;100.00;98442.34;5039426;28;20060;-50
2023/03/08 05:21:47;;;;;;;9.68;4.55;;;;;;;3.39;100.00;98435.75;5054176;28;20504;-50
2023/03/08 05:24:13;;;;;;;6.45;3.03;;;;;;;3.56;100.00;98436.19;5056928;28;20108;-49
2023/03/08 05:26:38;;;;;;;9.35;3.75;;;;;;;3.61;100.00;98434.59;5048462;28;20041;-49
2023/03/08 05:29:05;;;;;;;9.00;3.70;;;;;;;3.65;100.00;98437.66;5038824;28;20371;-48
2023/03/08 05:31:31;;;;;;;6.50;4.07;;;;;;;3.69;100.00;98433.63;5049629;28;20028;-48
2023/03/08 05:33:56;;;;;;;7.75;4.30;;;;;;;3.66;100.00;98432.22;5055039;28;20107;-48
2023/03/08 05:36:21;;;;;;;7.75;3.83;;;;;;;3.71;100.00;98424.56;5047480;28;20126;-48
2023/03/08 05:38:47;;;;;;;7.20;3.38;;;;;;;3.57;100.00;98422.13;5047189;28;20025;-49
2023/03/08 05:41:15;;;;;;;9.85;4.45;;;;;;;3.55;100.00;98414.44;5051287;28;20033;-54
2023/03/08 05:43:40;;;;;;;3.97;3.05;;;;;;;3.47;100.00;98409.38;5048008;28;20054;-51
2023/03/08 05:46:10;;;;;;;5.47;3.00;;;;;;;3.56;100.00;98408.19;5058308;28;20119;-50
2023/03/08 05:48:36;;;;;;;5.25;2.70;;;;;;;3.43;100.00;98398.50;5046294;28;20032;-50
2023/03/08 05:51:06;;;;;;;7.18;3.70;;;;;;;3.43;100.00;98393.25;5045749;28;20041;-49
2023/03/08 05:53:31;;;;;;;7.57;3.42;;;;;;;3.54;100.00;98391.03;5046840;28;20048;-51
2023/03/08 05:55:56;;;;;;;5.38;2.80;;;;;;;3.50;100.00;98388.81;5041940;28;20471;-50
2023/03/08 05:58:22;;;;;;;6.43;3.78;;;;;;;3.09;100.00;98373.13;5045127;28;20087;-48
2023/03/08 06:00:47;;;;;;;6.30;2.78;;;;;;;2.80;100.00;98369.75;5046890;28;20106;-49
2023/03/08 06:03:12;;;;;;;5.00;2.03;;;;;;;2.68;100.00;98367.88;5047593;28;20037;-48
2023/03/08 06:05:38;;;;;;;3.65;1.92;;;;;;;2.65;100.00;98353.34;5049556;28;20401;-48
2023/03/08 06:08:03;;;;;;;3.55;2.17;;;;;;;2.69;100.00;98348.56;5052303;28;20029;-48
2023/03/08 06:10:29;;;;;;;3.58;1.73;;;;;;;3.00;100.00;98340.28;5044186;28;20029;-47
2023/03/08 06:12:54;;;;;;;2.33;1.65;;;;;;;3.17;100.00;98333.69;5047097;28;20061;-48
2023/03/08 06:15:19;;;;;;;3.85;2.42;;;;;;;3.17;100.00;98333.69;5050686;28;20118;-48
2023/03/08 06:17:45;;;;;;;2.47;1.80;;;;;;;3.28;100.00;98335.75;5044178;28;20569;-50
2023/03/08 06:20:10;;;;;;;3.78;2.33;;;;;;;3.27;100.00;98330.69;5041510;28;20112;-48
2023/03/08 06:22:36;;;;;;;2.75;1.98;;;;;;;3.30;100.00;98342.59;5038052;28;20048;-52
2023/03/08 06:25:02;;;;;;;3.55;1.52;;;;;;;3.35;100.00;98340.19;5050434;28;20120;-49
2023/03/08 06:27:27;;;;;;;3.08;1.77;;;;;;;3.35;100.00;98361.94;5051127;28;20033;-51
2023/03/08 06:29:52;;;;;;;2.63;1.48;;;;;;;3.38;100.00;98347.66;5042076;28;20312;-53
2023/03/08 06:32:18;;;;;;;2.30;1.23;;;;;;;3.36;100.00;98342.63;5042023;28;20033;-52
2023/03/08 06:34:45;;;;;;;1.33;1.00;;;;;;;3.41;100.00;98340.22;5044805;28;20037;-52
2023/03/08 06:37:11;;;;;;;1.10;0.60;;;;;;;3.36;100.00;98334.78;5043945;28;20029;-51
2023/03/08 06:39:36;;;;;;;1.80;1.40;;;;;;;3.35;100.00;98330.53;5041966;28;20466;-50
2023/03/08 06:42:02;;;;;;;1.52;0.60;;;;;;;3.38;100.00;98338.00;5039149;28;20028;-50
2023/03/08 06:44:28;;;;;;;1.02;0.88;;;;;;;3.40;100.00;98358.75;5043374;28;20064;-51
2023/03/08 06:46:54;;;;;;;0.75;0.73;;;;;;;3.42;100.00;98367.22;5045336;28;20040;-50
2023/03/08 06:49:20;;;;;;;1.27;0.70;;;;;;;3.34;100.00;98364.78;5044134;28;20109;-48
2023/03/08 06:51:45;;;;;;;1.17;1.08;;;;;;;3.40;100.00;98364.78;5045849;28;20033;-50
2023/03/08 06:54:16;;;;;;;3.42;0.85;;;;;;;3.42;100.00;98362.00;5047896;28;20428;-54
2023/03/08 06:56:41;;;;;;;0.75;0.75;;;;;;;3.40;100.00;98367.41;5038846;28;20024;-49
2023/03/08 06:59:07;;;;;;;2.00;1.13;;;;;;;3.39;100.00;98378.09;5045842;28;20024;-48
2023/03/08 07:01:32;;;;;;;3.55;1.25;;;;;;;3.37;100.00;98380.09;5037985;28;20040;-51
2023/03/08 07:03:58;;;;;;;0.68;0.68;;;;;;;3.36;100.00;98378.50;5042849;28;20068;-52
2023/03/08 07:06:24;;;;;;;1.73;0.68;;;;;;;3.38;100.00;98379.09;5042824;28;20567;-49
2023/03/08 07:08:49;;;;;;;1.25;0.50;;;;;;;3.32;100.00;98379.88;5046633;28;20386;-48
2023/03/08 07:11:14;;;;;;;0.52;0.52;;;;;;;3.36;100.00;98373.25;5041128;28;20025;-50
2023/03/08 07:13:40;;;;;;;0.93;0.38;;;;;;;3.34;100.00;98364.78;5045048;28;20035;-48
2023/03/08 07:16:10;;;;;;;0.57;0.30;;;;;;;3.40;100.00;98350.91;5044733;28;20390;-48
2023/03/08 07:18:36;;;;;;;0.38;0.38;;;;;;;3.44;100.00;98346.88;5045226;28;20378;-50
2023/03/08 07:21:02;;;;;;;1.40;0.50;;;;;;;3.41;100.00;98335.00;5048629;28;20037;-48
2023/03/08 07:23:27;;;;;;;1.05;0.60;;;;;;;3.40;100.00;98338.59;5043721;28;20128;-48
2023/03/08 07:25:52;;;;;;;1.52;0.55;;;;;;;3.44;100.00;98349.50;5039090;28;20494;-54
2023/03/08 07:28:18;;;;;;;2.78;0.75;;;;;;;3.54;100.00;98352.56;5043733;28;20482;-51
2023/03/08 07:30:47;;;;;;;0.77;0.60;;;;;;;3.56;100.00;98344.50;5040278;28;20584;-49
2023/03/08 07:33:13;;;;;;;0.55;0.20;;;;;;;3.66;100.00;98347.53;5043510;28;20100;-48
2023/03/08 07:35:39;;;;;;;0.63;0.45;;;;;;;3.65;100.00;98341.50;5040900;28;20033;-49
2023/03/08 07:38:04;;;;;;;0.82;0.63;;;;;;;3.65;100.00;98349.34;5041694;28;20108;-48
2023/03/08 07:40:29;;;;;;;0.77;0.47;;;;;;;3.71;100.00;98350.38;5040915;28;20093;-48
2023/03/08 07:42:55;;;;;;;0.60;0.55;;;;;;;3.66;100.00;98342.28;5045739;28;20043;-52
2023/03/08 07:45:21;;;;;;;1.25;0.50;;;;;;;3.71;100.00;98342.50;5047736;28;20509;-50
2023/03/08 07:47:51;;;;;;;1.52;0.40;;;;;;;3.72;100.00;98333.66;5047007;28;20041;-53
2023/03/08 07:50:17;;;;;;;2.03;0.45;;;;;;;3.64;100.00;98336.44;5042341;28;20102;-48
2023/03/08 07:52:42;;;;;;;1.40;0.50;;;;;;;3.60;100.00;98337.84;5043230;28;20465;-49
2023/03/08 07:55:08;;;;;;;0.57;0.43;;;;;;;3.64;100.00;98328.56;5043349;28;20029;-51
2023/03/08 07:57:33;;;;;;;0.60;0.45;;;;;;;3.69;100.00;98342.72;5040354;28;20117;-48
2023/03/08 07:59:59;;;;;;;0.30;0.25;;;;;;;3.75;100.00;98342.94;5047115;28;20029;-52
2023/03/08 08:02:24;;;;;;;0.30;0.30;;;;;;;3.61;100.00;98335.03;5044399;28;20029;-55
2023/03/08 08:04:49;;;;;;;1.75;0.65;;;;;;;3.74;100.00;98343.91;5043235;28;20413;-50
2023/03/08 08:07:15;;;;;;;0.77;0.40;;;;;;;3.78;100.00;98345.97;5042819;28;20121;-51
2023/03/08 08:09:41;;;;;;;0.22;0.15;;;;;;;3.84;100.00;98345.16;5049380;28;20020;-49
2023/03/08 08:12:07;;;;;;;0.38;0.38;;;;;;;3.92;100.00;98341.53;5045926;28;20443;-52
2023/03/08 08:14:32;;;;;;;0.52;0.20;;;;;;;3.95;100.00;98338.53;5045969;28;20097;-53
2023/03/08 08:16:58;;;;;;;3.75;0.50;;;;;;;3.93;100.00;98337.91;5047457;28;20060;-52
2023/03/08 08:19:24;;;;;;;0.55;0.50;;;;;;;3.88;100.00;98333.25;5049944;28;20036;-52
2023/03/08 08:21:49;;;;;;;0.43;0.28;;;;;;;3.76;100.00;98336.69;5044549;28;20028;-50
2023/03/08 08:24:15;;;;;;;0.60;0.35;;;;;;;3.90;100.00;98335.69;5042286;28;20484;-52
2023/03/08 08:26:40;;;;;;;0.75;0.30;;;;;;;3.90;100.00;98360.09;5041481;28;20028;-52
2023/03/08 08:29:06;;;;;;;0.52;0.20;;;;;;;3.96;100.00;98357.69;5050535;28;20063;-54
2023/03/08 08:31:32;;;;;;;0.68;0.38;;;;;;;4.02;100.00;98368.16;5048761;28;20024;-52
2023/03/08 08:33:58;;;;;;;0.65;0.50;;;;;;;4.03;100.00;98354.06;5054920;28;20039;-50
2023/03/08 08:36:24;;;;;;;0.88;0.73;;;;;;;3.94;100.00;98356.06;5051269;28;20028;-53
2023/03/08 08:38:50;;;;;;;0.70;0.45;;;;;;;4.01;100.00;98347.41;5050006;28;20414;-49
2023/03/08 08:41:17;;;;;;;0.38;0.13;;;;;;;3.99;100.00;98346.78;5046983;28;20028;-54
2023/03/08 08:43:44;;;;;;;1.98;0.70;;;;;;;4.02;100.00;98351.63;5051351;28;20044;-52
2023/03/08 08:46:10;;;;;;;2.10;0.50;;;;;;;4.20;100.00;98345.78;5050385;28;20093;-49
2023/03/08 08:48:37;;;;;;;1.05;0.77;;;;;;;4.13;100.00;98353.63;5055825;28;20044;-49
2023/03/08 08:51:03;;;;;;;0.80;0.38;;;;;;;4.12;100.00;98354.66;5049047;28;20348;-54
2023/03/08 08:53:28;;;;;;;1.88;0.10;;;;;;;4.17;100.00;98348.81;5047334;28;20465;-49
2023/03/08 08:55:53;;;;;;;1.00;0.17;;;;;;;4.20;100.00;98327.44;5044504;28;20025;-53
2023/03/08 08:58:19;;;;;;;0.73;0.70;;;;;;;4.13;100.00;98323.00;5047182;28;20041;-53
2023/03/08 09:00:45;;;;;;;1.20;0.40;;;;;;;4.23;100.00;98322.56;5023647;28;20082;-52
2023/03/08 09:03:11;;;;;;;0.95;0.43;;;;;;;4.24;100.00;98323.41;5040882;28;20032;-51
2023/03/08 09:05:43;;;;;;;0.65;0.65;;;;;;;4.19;100.00;98328.44;5048888;28;20402;-49
2023/03/08 09:08:10;;;;;;;1.10;0.43;;;;;;;4.17;100.00;98330.47;5045975;28;20486;-49
2023/03/08 09:10:37;;;;;;;1.15;0.47;;;;;;;4.16;100.00;98327.03;5049352;28;20366;-56
2023/03/08 09:13:04;;;;;;;1.73;0.50;;;;;;;4.01;100.00;98335.09;5049275;28;20033;-49
2023/03/08 09:15:29;;;;;;;1.17;0.88;;;;;;;4.03;100.00;98332.28;5050532;28;20040;-52
2023/03/08 09:17:54;;;;;;;0.30;0.30;;;;;;;4.07;100.00;98329.03;5045932;28;20086;-52
2023/03/08 09:20:20;;;;;;;1.30;0.32;;;;;;;4.10;100.00;98327.81;5049528;28;20033;-51
2023/03/08 09:22:46;;;;;;;0.50;0.50;;;;;;;4.02;100.00;98334.06;5044922;28;20035;-50
2023/03/08 09:25:11;;;;;;;1.33;1.00;;;;;;;4.06;100.00;98335.28;5053510;28;20053;-54
2023/03/08 09:27:39;;;;;;;0.40;0.40;;;;;;;4.05;100.00;98328.44;5045260;28;20502;-54
2023/03/08 09:30:11;;;;;;;3.83;0.32;;;;;;;4.11;100.00;98340.75;5049183;28;20418;-55
2023/03/08 09:32:37;;;;;;;1.10;0.65;;;;;;;4.20;100.00;98335.28;5049008;28;20487;-51
2023/03/08 09:35:04;;;;;;;0.90;0.47;;;;;;;4.24;100.00;98332.06;5050625;28;20108;-53
2023/03/08 09:37:29;;;;;;;0.95;0.95;;;;;;;4.27;100.00;98331.66;5049302;28;20203;-56
2023/03/08 09:39:54;;;;;;;0.65;0.25;;;;;;;4.25;100.00;98346.78;5046977;28;20123;-55
2023/03/08 09:42:26;;;;;;;0.98;0.90;;;;;;;4.25;100.00;98340.75;5047660;28;20527;-51
2023/03/08 09:45:10;;;;;;;;;;;;;;;4.46;100.00;98337.09;5054785;28;20591;-48
2023/03/08 09:48:03;;;;;;;1.20;0.40;;;;;;;4.38;100.00;98343.34;5050128;28;19917;-51
2023/03/08 09:50:52;;;;;;;0.55;0.13;;;;;;;4.38;100.00;98338.09;5045469;28;20032;-55
2023/03/08 09:53:28;;;;;;;0.65;0.65;;;;;;;4.41;100.00;98331.66;5048396;28;20474;-53
2023/03/08 09:55:58;;;;;;;2.28;0.52;;;;;;;4.41;100.00;98337.69;5049861;28;20095;-53
2023/03/08 09:58:48;;;;;;;0.52;0.52;;;;;;;4.35;100.00;98330.66;5048148;28;20056;-53
2023/03/08 10:01:30;;;;;;;0.52;0.52;;;;;;;4.47;100.00;98323.78;5047803;28;20486;-52
2023/03/08 10:04:22;;;;;;;0.52;0.52;;;;;;;4.43;100.00;98319.94;5056450;28;20502;-55
2023/03/08 10:06:56;;;;;;;0.50;0.50;;;;;;;4.11;100.00;98329.44;5042259;28;20565;-50
2023/03/08 10:09:31;;;;;;;0.50;0.22;;;;;;;4.19;100.00;98317.94;5046337;28;20025;-51
2023/03/08 10:12:19;;;;;;;0.43;0.38;;;;;;;4.40;100.00;98312.47;5052627;28;20112;-51
2023/03/08 10:14:49;;;;;;;1.13;0.52;;;;;;;4.54;100.00;98316.72;5040917;28;20060;-53
2023/03/08 10:17:19;;;;;;;1.83;0.52;;;;;;;4.53;100.00;98311.66;5044035;28;20044;-51
2023/03/08 10:20:16;;;;;;;1.65;0.40;;;;;;;4.66;100.00;98322.13;5045381;28;20052;-52
2023/03/08 10:22:43;;;;;;;0.55;0.35;;;;;;;4.63;100.00;98321.72;5048099;28;20045;-55
2023/03/08 10:25:17;;;;;;;0.55;0.10;;;;;;;4.75;100.00;98325.31;5045488;28;20123;-50
2023/03/08 10:27:46;;;;;;;0.55;0.10;;;;;;;4.64;100.00;98312.84;5048940;28;20033;-55
2023/03/08 10:30:15;;;;;;;0.65;0.20;;;;;;;4.69;100.00;98316.44;5047370;28;20106;-50
2023/03/08 10:32:43;;;;;;;1.05;0.20;;;;;;;4.80;100.00;98307.13;5048729;28;20029;-51
2023/03/08 10:35:08;;;;;;;1.00;0.10;;;;;;;4.77;100.00;98312.81;5047243;28;20426;-52
2023/03/08 10:37:33;;;;;;;0.73;0.20;;;;;;;4.75;100.00;98317.44;5045902;28;20112;-50
2023/03/08 10:40:04;;;;;;;0.20;0.10;;;;;;;4.91;100.00;98327.50;5034873;28;20041;-54
2023/03/08 10:42:31;;;;;;;0.17;0.10;;;;;;;5.00;100.00;98318.38;5045691;28;20075;-54
2023/03/08 10:44:59;;;;;;;0.28;0.17;;;;;;;5.08;100.00;98319.97;5055233;28;20086;-53
2023/03/08 10:47:29;;;;;;;0.20;0.20;;;;;;;5.09;100.00;98331.31;5040368;28;20084;-52
2023/03/08 10:50:05;;;;;;;0.00;0.00;;;;;;;5.02;100.00;98315.56;5046841;28;20037;-53
2023/03/08 10:52:30;;;;;;;0.00;0.00;;;;;;;5.21;100.00;98306.81;5046587;28;20052;-51
2023/03/08 10:55:25;;;;;;;1.00;0.70;;;;;;;5.46;100.00;98303.44;5043133;28;20481;-51
2023/03/08 10:57:54;;;;;;;0.95;0.15;;;;;;;5.54;100.00;98307.63;5047895;28;20140;-49
2023/03/08 11:00:19;;;;;;;0.55;0.10;;;;;;;5.56;100.00;98306.41;5040906;28;20024;-50
2023/03/08 11:02:47;;;;;;;0.10;0.00;;;;;;;5.55;100.00;98309.22;5051837;28;20029;-51
2023/03/08 11:05:25;;;;;;;0.38;0.03;;;;;;;5.63;100.00;98312.44;5047700;28;20025;-52
2023/03/08 11:07:58;;;;;;;0.50;0.15;;;;;;;5.52;100.00;98312.28;5046301;28;20040;-55
2023/03/08 11:10:26;;;;;;;0.73;0.73;;;;;;;5.44;100.00;98310.72;5036424;28;20511;-53
2023/03/08 11:13:19;;;;;;;0.00;0.00;;;;;;;5.37;100.00;98323.06;5040050;28;20044;-54
2023/03/08 11:15:53;;;;;;;1.05;0.10;;;;;;;5.49;100.00;98308.25;5037991;28;20037;-49
2023/03/08 11:18:31;;;;;;;0.93;0.20;;;;;;;5.45;100.00;98307.88;5030136;28;20074;-53
2023/03/08 11:21:06;;;;;;;2.22;0.30;;;;;;;5.39;100.00;98303.44;5043788;28;20469;-50
2023/03/08 11:24:16;;;;;;;0.30;0.20;;;;;;;5.60;100.00;98304.16;5054147;28;20111;-52
2023/03/08 11:26:47;;;;;;;0.98;0.13;;;;;;;5.81;100.00;98297.75;5045213;28;20032;-54
2023/03/08 11:29:35;;;;;;;;;;;;;;;5.88;100.00;98304.56;5048079;28;20037;-55
2023/03/08 11:32:50;;;;;;;0.20;0.10;;;;;;;5.85;100.00;98299.72;5052662;28;19921;-55
2023/03/08 11:35:44;;;;;;;0.77;0.10;;;;;;;5.74;100.00;98300.41;5002845;28;20026;-54
2023/03/08 11:38:23;;;;;;;0.45;0.17;;;;;;;5.68;100.00;98307.34;5001166;28;20029;-54
2023/03/08 11:41:09;;;;;;;1.05;0.15;;;;;;;5.82;100.00;98300.16;5040728;28;20371;-49
2023/03/08 11:44:02;;;;;;;0.30;0.20;;;;;;;5.85;100.00;98299.72;5053100;28;20070;-53
2023/03/08 11:46:30;;;;;;;0.20;0.20;;;;;;;5.71;100.00;98315.84;5035114;28;20030;-50
2023/03/08 11:49:28;;;;;;;1.08;0.45;;;;;;;5.57;100.00;98307.19;5041971;28;20131;-53
2023/03/08 11:52:17;;;;;;;0.88;0.13;;;;;;;5.62;100.00;98316.06;5035073;28;20376;-51
2023/03/08 11:55:06;;;;;;;0.20;0.10;;;;;;;5.60;100.00;98312.84;5040146;28;20044;-53
2023/03/08 11:57:36;;;;;;;0.10;0.10;;;;;;;5.52;100.00;98313.09;5040276;28;20486;-48
2023/03/08 12:00:12;;;;;;;0.10;0.00;;;;;;;5.61;100.00;98308.41;5050037;28;20084;-50
2023/03/08 12:02:42;;;;;;;0.17;0.10;;;;;;;5.62;100.00;98302.91;5048389;28;20036;-54
2023/03/08 12:05:28;;;;;;;0.68;0.10;;;;;;;5.57;100.00;98308.00;5052493;28;20029;-49
2023/03/08 12:08:26;;;;;;;0.17;0.10;;;;;;;5.52;100.00;98307.03;5050062;28;20071;-54
2023/03/08 12:11:09;;;;;;;0.22;0.05;;;;;;;5.46;100.00;98314.75;5050640;28;20045;-53
2023/03/08 12:13:42;;;;;;;2.30;0.10;;;;;;;5.32;100.00;98315.84;5054343;28;20173;-52
2023/03/08 12:16:30;;;;;;;0.90;0.10;;;;;;;5.28;100.00;98313.84;5048060;28;20490;-49
2023/03/08 12:19:17;;;;;;;0.35;0.10;;;;;;;5.32;100.00;98307.13;5050149;28;20451;-49
2023/03/08 12:21:45;;;;;;;0.88;0.22;;;;;;;5.30;100.00;98307.34;5045869;28;20525;-51
2023/03/08 12:24:19;;;;;;;0.10;0.10;;;;;;;5.15;100.00;98315.50;5048884;28;20433;-47
2023/03/08 12:26:51;;;;;;;0.70;0.30;;;;;;;5.11;100.00;98302.97;5047689;28;20166;-55
2023/03/08 12:29:25;;;;;;;0.65;0.25;;;;;;;5.13;100.00;98306.22;5047064;28;20022;-52
2023/03/08 12:31:51;;;;;;;0.30;0.15;;;;;;;5.22;100.00;98315.47;5045335;28;20024;-50
2023/03/08 12:34:38;;;;;;;2.65;0.10;;;;;;;5.25;100.00;98313.22;5045665;28;20055;-54
2023/03/08 12:37:16;;;;;;;0.88;0.20;;;;;;;5.10;100.00;98306.63;5041006;28;20044;-51
2023/03/08 12:39:42;;;;;;;1.05;0.10;;;;;;;5.20;100.00;98314.88;5047370;28;20043;-49
2023/03/08 12:42:10;;;;;;;0.20;0.10;;;;;;;5.23;100.00;98303.94;5054138;28;20033;-48
2023/03/08 12:44:37;;;;;;;0.70;0.55;;;;;;;5.22;100.00;98310.22;5048147;28;20048;-51
2023/03/08 12:47:19;;;;;;;1.48;0.15;;;;;;;5.29;100.00;98297.03;5044865;28;20033;-49
2023/03/08 12:49:50;;;;;;;0.57;0.50;;;;;;;5.16;100.00;98303.16;5033180;28;20024;-52
2023/03/08 12:52:18;;;;;;;1.65;0.17;;;;;;;5.21;100.00;98298.91;5047167;28;20033;-50
2023/03/08 12:54:59;;;;;;;0.60;0.60;;;;;;;5.21;100.00;98298.09;5047258;28;20033;-50
2023/03/08 12:57:31;;;;;;;0.45;0.20;;;;;;;5.16;100.00;98295.28;5048593;28;20033;-50
2023/03/08 13:00:00;;;;;;;4.03;0.30;;;;;;;4.96;100.00;98293.56;5048822;28;20076;-50
2023/03/08 13:02:30;;;;;;;0.52;0.30;;;;;;;4.83;100.00;98291.00;5048194;28;20033;-50
2023/03/08 13:05:19;;;;;;;1.20;0.55;;;;;;;4.91;100.00;98292.56;5047438;28;20536;-53
2023/03/08 13:08:02;;;;;;;0.90;0.20;;;;;;;4.81;100.00;98293.00;5048743;28;20090;-50
2023/03/08 13:10:39;;;;;;;0.30;0.22;;;;;;;4.84;100.00;98295.22;5045596;28;20062;-49
2023/03/08 13:13:22;;;;;;;0.50;0.40;;;;;;;4.89;100.00;98290.16;5055372;28;20032;-50
2023/03/08 13:15:48;;;;;;;0.30;0.30;;;;;;;5.10;100.00;98285.63;5040437;28;20059;-48
2023/03/08 13:18:17;;;;;;;1.17;0.75;;;;;;;5.29;100.00;98282.06;5050825;28;20060;-52
2023/03/08 13:20:49;;;;;;;0.70;0.68;;;;;;;5.29;100.00;98276.81;5047226;28;20071;-51
2023/03/08 13:23:14;;;;;;;0.52;0.20;;;;;;;5.31;100.00;98276.63;5053426;28;20036;-49
2023/03/08 13:26:01;;;;;;;0.73;0.35;;;;;;;5.19;100.00;98277.28;5047212;28;20401;-49
2023/03/08 13:28:33;;;;;;;0.93;0.35;;;;;;;5.20;100.00;98275.47;5052061;28;20047;-53
2023/03/08 13:31:02;;;;;;;0.98;0.98;;;;;;;5.13;100.00;98267.59;5049149;28;20025;-48
2023/03/08 13:33:36;;;;;;;0.45;0.45;;;;;;;5.30;100.00;98273.19;5056005;28;20021;-48
2023/03/08 13:36:13;;;;;;;0.80;0.60;;;;;;;5.56;100.00;98259.09;5049982;28;20024;-49
2023/03/08 13:38:38;;;;;;;0.30;0.30;;;;;;;5.68;100.00;98261.84;5052831;28;20027;-49
2023/03/08 13:41:04;;;;;;;0.68;0.30;;;;;;;5.73;100.00;98248.03;5051081;28;20028;-50
2023/03/08 13:43:32;;;;;;;0.50;0.30;;;;;;;5.74;100.00;98253.09;5042904;28;20386;-49
2023/03/08 13:46:15;;;;;;;0.68;0.30;;;;;;;5.68;100.00;98248.69;5046754;28;20040;-53